Time;durP1;ratioP1;P1;durP2;ratioP2;P2;SDS_P1;SDS_P2;PMS_P1;PMS_P2;Temp;Humidity;BMP_temperature;BMP_pressure;BME280_temperature;BME280_humidity;BME280_pressure;Samples;Min_cycle;Max_cycle;Signal;HPM_P1;HPM_P2
2022/10/16 00:00:16;;;;;;;;;;;20.00;92.70;;;;;;5134742;28;19959;-44
2022/10/16 00:02:41;;;;;;;;;;;19.90;92.70;;;;;;5134681;28;19915;-43
2022/10/16 00:05:06;;;;;;;;;;;19.90;92.70;;;;;;5134723;28;20417;-44
2022/10/16 00:07:32;;;;;;;;;;;19.90;92.70;;;;;;5134734;28;19920;-48
2022/10/16 00:09:57;;;;;;;;;;;19.90;92.70;;;;;;5134950;28;19911;-45
2022/10/16 00:12:23;;;;;;;;;;;19.90;92.70;;;;;;5134823;28;19907;-44
2022/10/16 00:14:48;;;;;;;;;;;19.90;92.70;;;;;;5134589;28;19916;-44
2022/10/16 00:17:14;;;;;;;;;;;19.90;92.70;;;;;;5134400;28;20269;-44
2022/10/16 00:19:39;;;;;;;;;;;19.90;92.60;;;;;;5134494;28;19911;-44
2022/10/16 00:22:05;;;;;;;;;;;19.90;92.60;;;;;;5137982;27;19919;-43
2022/10/16 00:24:30;;;;;;;;;;;19.90;92.60;;;;;;5120294;27;20283;-44
2022/10/16 00:26:56;;;;;;;;;;;19.90;92.60;;;;;;5138652;27;19915;-44
2022/10/16 00:29:21;;;;;;;;;;;19.90;92.60;;;;;;5138652;27;19915;-43
2022/10/16 00:31:47;;;;;;;;;;;19.90;92.60;;;;;;5138558;27;19908;-42
2022/10/16 00:34:12;;;;;;;;;;;19.90;92.60;;;;;;5138521;27;19916;-44
2022/10/16 00:36:38;;;;;;;;;;;19.90;92.60;;;;;;5138529;27;19908;-45
2022/10/16 00:39:03;;;;;;;;;;;19.90;92.60;;;;;;5138187;27;19908;-47
2022/10/16 00:41:29;;;;;;;;;;;19.90;92.60;;;;;;5138427;27;19911;-43
2022/10/16 00:43:58;;;;;;;;;;;19.90;92.60;;;;;;5138085;27;20361;-44
2022/10/16 00:46:26;;;;;;;;;;;19.90;92.60;;;;;;5127999;27;19908;-43
2022/10/16 00:48:54;;;;;;;;;;;19.90;92.60;;;;;;5117729;28;19994;-45
2022/10/16 00:51:22;;;;;;;;;;;19.90;92.70;;;;;;5117305;28;19922;-46
2022/10/16 00:53:48;;;;;;;;;;;19.90;93.00;;;;;;5099392;28;19961;-43
2022/10/16 00:56:13;;;;;;;;;;;19.90;92.80;;;;;;5117664;28;20277;-43
2022/10/16 00:58:39;;;;;;;;;;;19.90;92.80;;;;;;5099419;28;19911;-46
2022/10/16 01:01:04;;;;;;;;;;;19.90;92.80;;;;;;5117163;28;19919;-44
2022/10/16 01:03:32;;;;;;;;;;;19.90;92.80;;;;;;5117230;28;19908;-46
2022/10/16 01:06:36;;;;;;;;;;;19.90;92.80;;;;;;5117338;28;19908;-44
2022/10/16 01:09:11;;;;;;;;;;;19.90;92.70;;;;;;5054237;28;19920;-43
2022/10/16 01:11:53;;;;;;;;;;;19.90;92.70;;;;;;5054278;28;19909;-45
2022/10/16 01:14:24;;;;;;;;;;;19.90;92.60;;;;;;5094165;28;19915;-43
2022/10/16 01:16:54;;;;;;;;;;;19.90;92.60;;;;;;5098871;28;19912;-43
2022/10/16 01:19:36;;;;;;;;;;;19.90;92.60;;;;;;5117127;28;19908;-42
2022/10/16 01:22:03;;;;;;;;;;;19.90;92.60;;;;;;5116798;28;19908;-43
2022/10/16 01:24:34;;;;;;;;;;;19.90;92.60;;;;;;5116694;28;20392;-43
2022/10/16 01:27:00;;;;;;;;;;;19.90;92.60;;;;;;5117232;28;19915;-44
2022/10/16 01:29:28;;;;;;;;;;;19.90;92.60;;;;;;5116493;28;19912;-44
2022/10/16 01:31:56;;;;;;;;;;;19.80;92.60;;;;;;5114831;28;19912;-44
2022/10/16 01:34:28;;;;;;;;;;;19.90;92.60;;;;;;5116486;28;19915;-43
2022/10/16 01:36:58;;;;;;;;;;;19.80;92.60;;;;;;5116913;28;19912;-45
2022/10/16 01:39:28;;;;;;;;;;;19.90;92.60;;;;;;5116492;28;19937;-44
2022/10/16 01:41:56;;;;;;;;;;;19.80;92.60;;;;;;5116486;28;20316;-45
2022/10/16 01:44:25;;;;;;;;;;;19.80;92.60;;;;;;5116616;28;19908;-48
2022/10/16 01:46:52;;;;;;;;;;;19.80;92.60;;;;;;5130276;27;20239;-45
2022/10/16 01:49:18;;;;;;;;;;;19.90;92.60;;;;;;5137003;27;19915;-48
2022/10/16 01:51:46;;;;;;;;;;;19.90;92.60;;;;;;5136977;27;19954;-43
2022/10/16 01:54:13;;;;;;;;;;;19.90;92.60;;;;;;5137012;27;19915;-47
2022/10/16 01:56:39;;;;;;;;;;;19.90;92.60;;;;;;5137022;27;19908;-44
2022/10/16 01:59:13;;;;;;;;;;;19.80;92.60;;;;;;5136586;27;20362;-45
2022/10/16 02:01:40;;;;;;;;;;;19.80;92.60;;;;;;5136608;27;20266;-43
2022/10/16 02:04:13;;;;;;;;;;;19.80;92.70;;;;;;5136619;27;20002;-46
2022/10/16 02:06:38;;;;;;;;;;;19.80;92.70;;;;;;5118168;27;20285;-46
2022/10/16 02:09:04;;;;;;;;;;;19.80;92.70;;;;;;5136691;27;19915;-46
2022/10/16 02:11:29;;;;;;;;;;;19.80;92.60;;;;;;5136383;27;20002;-43
2022/10/16 02:13:58;;;;;;;;;;;19.80;92.60;;;;;;5136577;27;19926;-44
2022/10/16 02:16:32;;;;;;;;;;;19.80;92.60;;;;;;5136635;27;19994;-44
2022/10/16 02:18:57;;;;;;;;;;;19.80;92.60;;;;;;5136333;27;19952;-43
2022/10/16 02:21:28;;;;;;;;;;;19.90;92.50;;;;;;5136229;27;19940;-43
2022/10/16 02:23:56;;;;;;;;;;;19.90;92.50;;;;;;5136161;27;19908;-43
2022/10/16 02:26:51;;;;;;;;;;;19.80;92.50;;;;;;5136423;27;19915;-43
2022/10/16 02:29:19;;;;;;;;;;;19.80;92.50;;;;;;5118408;27;19984;-44
2022/10/16 02:31:47;;;;;;;;;;;19.90;92.60;;;;;;5136432;27;20330;-43
2022/10/16 02:34:13;;;;;;;;;;;19.80;92.50;;;;;;5136201;27;19919;-43
2022/10/16 02:36:39;;;;;;;;;;;19.80;92.50;;;;;;5136141;27;19907;-43
2022/10/16 02:39:05;;;;;;;;;;;19.90;92.60;;;;;;5117781;27;19958;-43
2022/10/16 02:41:31;;;;;;;;;;;19.90;92.50;;;;;;5135744;27;19955;-43
2022/10/16 02:43:56;;;;;;;;;;;19.90;92.50;;;;;;5135285;27;19914;-43
2022/10/16 02:46:21;;;;;;;;;;;19.90;92.50;;;;;;5126091;27;19947;-44
2022/10/16 02:48:47;;;;;;;;;;;19.90;92.50;;;;;;5115188;28;19908;-43
2022/10/16 02:51:12;;;;;;;;;;;19.80;92.50;;;;;;5115421;28;19908;-43
2022/10/16 02:53:38;;;;;;;;;;;19.80;92.60;;;;;;5115376;28;19923;-44
2022/10/16 02:56:03;;;;;;;;;;;19.80;92.60;;;;;;5115682;28;19908;-44
2022/10/16 02:58:29;;;;;;;;;;;19.80;92.60;;;;;;5115001;28;20010;-44
2022/10/16 03:00:55;;;;;;;;;;;19.90;92.60;;;;;;5115562;28;19908;-43
2022/10/16 03:03:20;;;;;;;;;;;19.80;92.60;;;;;;5115091;28;19916;-43
2022/10/16 03:05:46;;;;;;;;;;;19.80;92.60;;;;;;5114815;28;19908;-44
2022/10/16 03:08:12;;;;;;;;;;;19.80;92.70;;;;;;5115353;28;20271;-42
2022/10/16 03:10:37;;;;;;;;;;;19.80;92.70;;;;;;5115095;28;20022;-42
2022/10/16 03:13:03;;;;;;;;;;;19.80;92.60;;;;;;5114763;28;19951;-43
2022/10/16 03:15:28;;;;;;;;;;;19.80;92.60;;;;;;5114924;28;19916;-42
2022/10/16 03:17:54;;;;;;;;;;;19.80;92.60;;;;;;5114635;28;19915;-44
2022/10/16 03:20:19;;;;;;;;;;;19.80;92.60;;;;;;5114812;28;19961;-42
2022/10/16 03:22:45;;;;;;;;;;;19.80;92.60;;;;;;5114854;28;20346;-45
2022/10/16 03:25:10;;;;;;;;;;;19.80;92.50;;;;;;5114838;28;19915;-43
2022/10/16 03:27:36;;;;;;;;;;;19.80;92.60;;;;;;5114535;28;19911;-43
2022/10/16 03:30:02;;;;;;;;;;;19.80;92.60;;;;;;5113497;28;19908;-44
2022/10/16 03:32:28;;;;;;;;;;;19.80;92.60;;;;;;5114660;28;20051;-44
2022/10/16 03:34:54;;;;;;;;;;;19.80;92.60;;;;;;5114315;28;19916;-43
2022/10/16 03:37:19;;;;;;;;;;;19.90;92.60;;;;;;5114383;28;19915;-44
2022/10/16 03:39:45;;;;;;;;;;;19.80;92.70;;;;;;5115153;28;20369;-43
2022/10/16 03:42:10;;;;;;;;;;;19.80;92.70;;;;;;5114360;28;20081;-45
2022/10/16 03:44:36;;;;;;;;;;;19.80;92.80;;;;;;5114874;28;19934;-43
2022/10/16 03:47:01;;;;;;;;;;;19.80;92.80;;;;;;5129918;27;19914;-43
2022/10/16 03:49:27;;;;;;;;;;;19.80;92.80;;;;;;5135003;27;20345;-44
2022/10/16 03:51:52;;;;;;;;;;;19.80;92.80;;;;;;5134846;28;19960;-47
2022/10/16 03:54:18;;;;;;;;;;;19.80;92.80;;;;;;5134648;28;19923;-43
2022/10/16 03:56:43;;;;;;;;;;;19.80;92.80;;;;;;5137487;27;19961;-46
2022/10/16 03:59:09;;;;;;;;;;;19.80;92.80;;;;;;5139055;27;20023;-43
2022/10/16 04:01:34;;;;;;;;;;;19.80;92.80;;;;;;5139240;27;19907;-44
2022/10/16 04:04:00;;;;;;;;;;;19.80;92.80;;;;;;5139181;27;19907;-45
2022/10/16 04:06:25;;;;;;;;;;;19.80;92.70;;;;;;5138985;27;19919;-43
2022/10/16 04:08:51;;;;;;;;;;;19.80;92.70;;;;;;5138668;27;19915;-43
2022/10/16 04:11:16;;;;;;;;;;;19.80;92.70;;;;;;5139364;27;20250;-43
2022/10/16 04:13:42;;;;;;;;;;;19.80;92.70;;;;;;5138739;27;19915;-43
2022/10/16 04:16:07;;;;;;;;;;;19.80;92.70;;;;;;5137675;27;19938;-44
2022/10/16 04:18:33;;;;;;;;;;;19.80;92.70;;;;;;5138961;27;20205;-43
2022/10/16 04:21:02;;;;;;;;;;;19.80;92.70;;;;;;5138610;27;19907;-43
2022/10/16 04:23:28;;;;;;;;;;;19.80;92.70;;;;;;5138853;27;19914;-42
2022/10/16 04:25:53;;;;;;;;;;;19.80;92.70;;;;;;5138852;27;20327;-45
2022/10/16 04:28:19;;;;;;;;;;;19.90;92.60;;;;;;5118267;27;19912;-44
2022/10/16 04:30:44;;;;;;;;;;;19.80;92.60;;;;;;5118185;28;19907;-44
2022/10/16 04:33:10;;;;;;;;;;;19.80;92.70;;;;;;5117546;28;20347;-44
2022/10/16 04:35:35;;;;;;;;;;;19.90;92.70;;;;;;5117931;28;19919;-43
2022/10/16 04:38:00;;;;;;;;;;;19.90;92.70;;;;;;5117703;28;19960;-42
2022/10/16 04:40:26;;;;;;;;;;;19.90;92.80;;;;;;5117717;28;20358;-44
2022/10/16 04:42:52;;;;;;;;;;;19.80;92.80;;;;;;5117869;28;19976;-47
2022/10/16 04:45:17;;;;;;;;;;;19.80;92.80;;;;;;5118036;27;19908;-43
2022/10/16 04:47:43;;;;;;;;;;;19.80;92.90;;;;;;5138127;27;19912;-46
2022/10/16 04:50:08;;;;;;;;;;;19.80;92.90;;;;;;5135193;27;19932;-47
2022/10/16 04:52:34;;;;;;;;;;;19.80;92.90;;;;;;5117455;28;19912;-44
2022/10/16 04:55:02;;;;;;;;;;;19.80;92.90;;;;;;5117660;28;20385;-47
2022/10/16 04:57:28;;;;;;;;;;;19.80;92.90;;;;;;5113640;28;19972;-46
2022/10/16 04:59:54;;;;;;;;;;;19.80;92.90;;;;;;5117857;28;19907;-47
2022/10/16 05:02:19;;;;;;;;;;;19.80;92.90;;;;;;5117429;28;20008;-44
2022/10/16 05:04:45;;;;;;;;;;;19.80;92.90;;;;;;5117538;28;19934;-45
2022/10/16 05:07:10;;;;;;;;;;;19.80;92.90;;;;;;5117008;28;20163;-46
2022/10/16 05:09:35;;;;;;;;;;;19.80;92.90;;;;;;5117384;28;19912;-47
2022/10/16 05:12:03;;;;;;;;;;;19.80;92.90;;;;;;5115117;28;20003;-44
2022/10/16 05:14:28;;;;;;;;;;;19.80;92.90;;;;;;5116630;28;20370;-44
2022/10/16 05:16:54;;;;;;;;;;;19.80;92.90;;;;;;5098959;28;19914;-44
2022/10/16 05:19:19;;;;;;;;;;;19.80;92.90;;;;;;5117178;28;19908;-45
2022/10/16 05:21:45;;;;;;;;;;;19.80;92.90;;;;;;5116944;28;19919;-46
2022/10/16 05:24:10;;;;;;;;;;;19.80;92.90;;;;;;5116985;28;19943;-45
2022/10/16 05:26:36;;;;;;;;;;;19.80;92.90;;;;;;5116914;28;19955;-42
2022/10/16 05:29:02;;;;;;;;;;;19.80;92.90;;;;;;5096781;28;19920;-43
2022/10/16 05:31:27;;;;;;;;;;;19.80;92.90;;;;;;5116805;28;19933;-44
2022/10/16 05:33:57;;;;;;;;;;;19.80;92.90;;;;;;5116384;28;19940;-45
2022/10/16 05:36:23;;;;;;;;;;;19.80;92.90;;;;;;5114435;28;19915;-47
2022/10/16 05:38:50;;;;;;;;;;;19.90;92.90;;;;;;5114678;28;19908;-45
2022/10/16 05:41:21;;;;;;;;;;;19.90;92.90;;;;;;5114314;28;19956;-48
2022/10/16 05:43:47;;;;;;;;;;;19.80;92.90;;;;;;5114710;28;20342;-46
2022/10/16 05:46:12;;;;;;;;;;;19.90;93.00;;;;;;5122745;27;19915;-47
2022/10/16 05:48:37;;;;;;;;;;;19.80;93.00;;;;;;5135079;27;19914;-43
2022/10/16 05:51:04;;;;;;;;;;;19.90;93.00;;;;;;5136700;27;20002;-44
2022/10/16 05:53:30;;;;;;;;;;;19.90;93.00;;;;;;5118556;27;19956;-44
2022/10/16 05:55:56;;;;;;;;;;;19.90;93.00;;;;;;5136634;27;20453;-42
2022/10/16 05:58:22;;;;;;;;;;;19.90;93.00;;;;;;5136959;27;19979;-42
2022/10/16 06:00:54;;;;;;;;;;;19.80;92.90;;;;;;5137259;27;19907;-44
2022/10/16 06:03:20;;;;;;;;;;;19.80;92.90;;;;;;5136935;27;19933;-43
2022/10/16 06:05:45;;;;;;;;;;;19.90;92.90;;;;;;5136621;27;19911;-44
2022/10/16 06:08:11;;;;;;;;;;;19.90;92.90;;;;;;5136965;27;19957;-43
2022/10/16 06:10:36;;;;;;;;;;;19.90;92.90;;;;;;5136374;27;20398;-43
2022/10/16 06:13:02;;;;;;;;;;;19.90;92.80;;;;;;5136111;27;19907;-45
2022/10/16 06:15:27;;;;;;;;;;;19.80;92.80;;;;;;5136300;27;20378;-45
2022/10/16 06:17:53;;;;;;;;;;;19.80;92.80;;;;;;5136050;27;19908;-43
2022/10/16 06:20:18;;;;;;;;;;;19.80;92.80;;;;;;5135801;27;19915;-43
2022/10/16 06:22:44;;;;;;;;;;;19.80;92.80;;;;;;5136120;27;19988;-44
2022/10/16 06:25:10;;;;;;;;;;;19.80;92.80;;;;;;5136281;27;19907;-44
2022/10/16 06:27:35;;;;;;;;;;;19.80;92.80;;;;;;5136015;27;19931;-44
2022/10/16 06:30:01;;;;;;;;;;;19.80;92.70;;;;;;5136178;27;19914;-43
2022/10/16 06:32:27;;;;;;;;;;;19.80;92.70;;;;;;5135897;27;19907;-42
2022/10/16 06:34:52;;;;;;;;;;;19.80;92.70;;;;;;5136000;27;19958;-46
2022/10/16 06:37:18;;;;;;;;;;;19.80;92.70;;;;;;5136510;27;20346;-45
2022/10/16 06:39:43;;;;;;;;;;;19.80;92.70;;;;;;5136187;27;19933;-47
2022/10/16 06:42:09;;;;;;;;;;;19.90;92.70;;;;;;5135670;27;19954;-44
2022/10/16 06:44:34;;;;;;;;;;;19.80;92.80;;;;;;5136422;27;19912;-47
2022/10/16 06:47:00;;;;;;;;;;;19.90;93.00;;;;;;5120758;27;20358;-47
2022/10/16 06:49:25;;;;;;;;;;;19.90;92.80;;;;;;5115334;28;19919;-45
2022/10/16 06:51:50;;;;;;;;;;;19.80;92.80;;;;;;5115049;28;19908;-44
2022/10/16 06:54:17;;;;;;;;;;;19.90;92.80;;;;;;5114838;28;19926;-46
2022/10/16 06:56:43;;;;;;;;;;;19.90;92.80;;;;;;5096932;28;19988;-43
2022/10/16 06:59:08;;;;;;;;;;;19.80;92.80;;;;;;5115051;28;19966;-43
2022/10/16 07:01:34;;;;;;;;;;;19.90;92.90;;;;;;5096954;28;20376;-43
2022/10/16 07:04:00;;;;;;;;;;;19.90;92.80;;;;;;5113958;28;19908;-44
2022/10/16 07:06:26;;;;;;;;;;;19.80;92.80;;;;;;5114426;28;19920;-45
2022/10/16 07:08:52;;;;;;;;;;;19.90;92.80;;;;;;5115130;28;20000;-42
2022/10/16 07:11:18;;;;;;;;;;;19.90;92.80;;;;;;5114537;28;19907;-47
2022/10/16 07:13:45;;;;;;;;;;;19.90;92.80;;;;;;5114909;28;19908;-44
2022/10/16 07:16:12;;;;;;;;;;;19.90;92.80;;;;;;5096649;28;20014;-43
2022/10/16 07:18:40;;;;;;;;;;;19.90;92.80;;;;;;5114707;28;20262;-45
2022/10/16 07:21:09;;;;;;;;;;;19.90;92.70;;;;;;5114689;28;20328;-44
2022/10/16 07:23:35;;;;;;;;;;;20.00;92.70;;;;;;5114733;28;19915;-44
2022/10/16 07:26:01;;;;;;;;;;;20.00;92.70;;;;;;5114464;28;20358;-46
2022/10/16 07:28:26;;;;;;;;;;;20.00;92.70;;;;;;5114458;28;19999;-42
2022/10/16 07:30:52;;;;;;;;;;;20.00;92.70;;;;;;5114712;28;19915;-43
2022/10/16 07:33:17;;;;;;;;;;;20.00;92.70;;;;;;5114623;28;19975;-43
2022/10/16 07:35:50;;;;;;;;;;;20.00;92.60;;;;;;5114110;28;19916;-45
2022/10/16 07:38:15;;;;;;;;;;;20.00;92.60;;;;;;5114377;28;19912;-43
2022/10/16 07:40:41;;;;;;;;;;;20.00;92.60;;;;;;5114222;28;19914;-45
2022/10/16 07:43:06;;;;;;;;;;;20.00;92.60;;;;;;5114376;28;19908;-47
2022/10/16 07:45:31;;;;;;;;;;;20.00;92.60;;;;;;5098963;27;19997;-46
2022/10/16 07:47:57;;;;;;;;;;;20.00;92.60;;;;;;5116555;28;19914;-44
2022/10/16 07:50:22;;;;;;;;;;;20.00;92.60;;;;;;5134930;27;19914;-44
2022/10/16 07:52:48;;;;;;;;;;;20.00;92.60;;;;;;5134803;28;19998;-47
2022/10/16 07:55:13;;;;;;;;;;;20.00;92.60;;;;;;5112351;28;19931;-44
2022/10/16 07:57:39;;;;;;;;;;;20.00;92.60;;;;;;5114068;28;20312;-46
2022/10/16 08:00:05;;;;;;;;;;;20.00;92.60;;;;;;5112495;28;20387;-44
2022/10/16 08:02:31;;;;;;;;;;;20.10;92.60;;;;;;5112341;28;19915;-45
2022/10/16 08:04:56;;;;;;;;;;;20.10;92.60;;;;;;5112898;28;19923;-45
2022/10/16 08:07:22;;;;;;;;;;;20.00;92.60;;;;;;5112736;28;19920;-45
2022/10/16 08:09:49;;;;;;;;;;;20.10;92.70;;;;;;5112497;28;19952;-45
2022/10/16 08:12:14;;;;;;;;;;;20.10;92.70;;;;;;5112643;28;19908;-44
2022/10/16 08:14:40;;;;;;;;;;;20.10;92.70;;;;;;5112401;28;19922;-47
2022/10/16 08:17:05;;;;;;;;;;;20.10;92.70;;;;;;5112810;28;20049;-47
2022/10/16 08:19:34;;;;;;;;;;;20.10;92.70;;;;;;5111009;28;20357;-44
2022/10/16 08:21:59;;;;;;;;;;;20.10;92.70;;;;;;5112470;28;19922;-49
2022/10/16 08:24:25;;;;;;;;;;;20.10;92.70;;;;;;5112630;28;19904;-43
2022/10/16 08:26:53;;;;;;;;;;;20.10;92.70;;;;;;5112343;28;20369;-45
2022/10/16 08:29:18;;;;;;;;;;;20.10;92.60;;;;;;5112588;28;19910;-44
2022/10/16 08:31:44;;;;;;;;;;;20.10;92.60;;;;;;5112441;28;19904;-44
2022/10/16 08:34:09;;;;;;;;;;;20.10;92.60;;;;;;5111372;28;20388;-47
2022/10/16 08:36:34;;;;;;;;;;;20.10;92.60;;;;;;5113870;28;19908;-44
2022/10/16 08:39:00;;;;;;;;;;;20.10;92.60;;;;;;5113885;28;19908;-46
2022/10/16 08:41:31;;;;;;;;;;;20.10;92.60;;;;;;5114168;28;19915;-43
2022/10/16 08:44:00;;;;;;;;;;;20.10;92.60;;;;;;5117699;28;19915;-43
2022/10/16 08:46:36;;;;;;;;;;;20.10;92.70;;;;;;5127802;27;19912;-44
2022/10/16 08:49:02;;;;;;;;;;;20.10;92.70;;;;;;5127887;27;19915;-44
2022/10/16 08:51:34;;;;;;;;;;;20.10;92.70;;;;;;5117042;28;19908;-44
2022/10/16 08:54:04;;;;;;;;;;;20.20;92.70;;;;;;5117111;28;19920;-43
2022/10/16 08:56:29;;;;;;;;;;;20.20;92.70;;;;;;5117155;28;19984;-45
2022/10/16 08:58:56;;;;;;;;;;;20.10;92.70;;;;;;5117067;28;19908;-43
2022/10/16 09:01:23;;;;;;;;;;;20.20;92.70;;;;;;5116150;28;19908;-45
2022/10/16 09:03:54;;;;;;;;;;;20.20;92.70;;;;;;5114775;28;19908;-44
2022/10/16 09:06:38;;;;;;;;;;;20.20;92.60;;;;;;5116807;28;19977;-46
2022/10/16 09:09:06;;;;;;;;;;;20.20;92.60;;;;;;5115160;28;19998;-43
2022/10/16 09:11:35;;;;;;;;;;;20.20;92.60;;;;;;5096930;28;20006;-43
2022/10/16 09:14:19;;;;;;;;;;;20.20;92.60;;;;;;5116443;28;20342;-43
2022/10/16 09:16:46;;;;;;;;;;;20.20;92.50;;;;;;5115566;28;19907;-44
2022/10/16 09:19:14;;;;;;;;;;;20.20;92.50;;;;;;5117094;28;19911;-42
2022/10/16 09:21:42;;;;;;;;;;;20.10;92.40;;;;;;5116818;28;19908;-42
2022/10/16 09:24:11;;;;;;;;;;;20.20;92.50;;;;;;5116797;28;19907;-41
2022/10/16 09:26:37;;;;;;;;;;;20.10;92.40;;;;;;5115358;28;20093;-44
2022/10/16 09:29:02;;;;;;;;;;;20.20;92.40;;;;;;5115216;28;20015;-42
2022/10/16 09:31:28;;;;;;;;;;;20.10;92.30;;;;;;5114075;28;19919;-42
2022/10/16 09:33:55;;;;;;;;;;;20.10;92.50;;;;;;5115387;28;19920;-42
2022/10/16 09:36:21;;;;;;;;;;;20.10;92.30;;;;;;5116352;28;19939;-43
2022/10/16 09:38:46;;;;;;;;;;;20.10;92.20;;;;;;5116610;28;19912;-43
2022/10/16 09:41:17;;;;;;;;;;;20.10;92.20;;;;;;5116117;28;19908;-43
2022/10/16 09:43:45;;;;;;;;;;;20.10;92.20;;;;;;5114855;28;20235;-42
2022/10/16 09:46:40;;;;;;;;;;;20.10;92.20;;;;;;5123755;27;20290;-42
2022/10/16 09:49:18;;;;;;;;;;;20.10;92.20;;;;;;5108069;27;19912;-43
2022/10/16 09:51:44;;;;;;;;;;;20.10;92.10;;;;;;5093180;28;19912;-44
2022/10/16 09:54:09;;;;;;;;;;;20.10;92.10;;;;;;5112715;28;20290;-46
2022/10/16 09:56:36;;;;;;;;;;;20.10;92.10;;;;;;5116393;28;19918;-44
2022/10/16 09:59:11;;;;;;;;;;;20.10;92.00;;;;;;5114454;28;19912;-43
2022/10/16 10:01:38;;;;;;;;;;;20.10;92.00;;;;;;5113599;28;19915;-44
2022/10/16 10:04:04;;;;;;;;;;;20.10;92.10;;;;;;5114991;28;19919;-44
2022/10/16 10:06:34;;;;;;;;;;;20.10;92.10;;;;;;5116118;28;19920;-44
2022/10/16 10:09:01;;;;;;;;;;;20.20;92.10;;;;;;5113657;28;19922;-44
2022/10/16 10:11:56;;;;;;;;;;;20.20;92.20;;;;;;5113080;27;20449;-43
2022/10/16 10:14:33;;;;;;;;;;;20.20;92.10;;;;;;5083561;28;19927;-47
2022/10/16 10:17:08;;;;;;;;;;;20.20;92.20;;;;;;5112705;28;19991;-44
2022/10/16 10:19:54;;;;;;;;;;;20.20;92.30;;;;;;5115568;28;19915;-45
2022/10/16 10:22:25;;;;;;;;;;;20.20;92.40;;;;;;5080553;28;20386;-43
2022/10/16 10:25:00;;;;;;;;;;;20.20;92.50;;;;;;5115847;28;19915;-46
2022/10/16 10:27:49;;;;;;;;;;;20.20;92.70;;;;;;5115685;28;19919;-43
2022/10/16 10:30:23;;;;;;;;;;;20.20;93.00;;;;;;5115059;28;20003;-45
2022/10/16 10:33:07;;;;;;;;;;;20.20;92.80;;;;;;5115853;28;19915;-44
2022/10/16 10:35:45;;;;;;;;;;;20.20;92.90;;;;;;5096774;28;19916;-45
2022/10/16 10:38:42;;;;;;;;;;;20.20;92.90;;;;;;5115379;28;19907;-44
2022/10/16 10:41:20;;;;;;;;;;;20.20;92.90;;;;;;5069969;28;19908;-45
2022/10/16 10:43:48;;;;;;;;;;;20.20;92.90;;;;;;5111107;28;19919;-45
2022/10/16 10:46:20;;;;;;;;;;;20.20;92.80;;;;;;5113115;27;20042;-45
2022/10/16 10:49:03;;;;;;;;;;;20.20;92.70;;;;;;5115194;28;19930;-44
2022/10/16 10:51:37;;;;;;;;;;;20.20;92.70;;;;;;5113106;27;19911;-42
2022/10/16 10:54:03;;;;;;;;;;;20.20;92.70;;;;;;5114311;28;19962;-45
2022/10/16 10:56:50;;;;;;;;;;;20.30;92.60;;;;;;5113902;28;20381;-43
2022/10/16 10:59:21;;;;;;;;;;;20.20;92.50;;;;;;5112484;28;19908;-44
2022/10/16 11:01:58;;;;;;;;;;;20.30;92.60;;;;;;5111880;28;19964;-43
2022/10/16 11:04:23;;;;;;;;;;;20.20;92.60;;;;;;5112864;28;19912;-42
2022/10/16 11:06:52;;;;;;;;;;;20.20;92.70;;;;;;5111769;28;19924;-44
2022/10/16 11:09:19;;;;;;;;;;;20.20;92.70;;;;;;5113969;28;20378;-43
2022/10/16 11:11:46;;;;;;;;;;;20.20;92.70;;;;;;5096097;28;19922;-42
2022/10/16 11:14:18;;;;;;;;;;;20.20;93.00;;;;;;5110808;28;19920;-43
2022/10/16 11:16:50;;;;;;;;;;;20.20;92.80;;;;;;5123987;27;19980;-44
2022/10/16 11:19:33;;;;;;;;;;;20.20;92.80;;;;;;5133175;27;19915;-43
2022/10/16 11:22:02;;;;;;;;;;;20.20;92.80;;;;;;5113108;28;19912;-44
2022/10/16 11:24:35;;;;;;;;;;;20.20;92.80;;;;;;5114569;28;19914;-42
2022/10/16 11:27:04;;;;;;;;;;;20.20;92.80;;;;;;5112936;28;19908;-43
2022/10/16 11:29:31;;;;;;;;;;;20.20;92.80;;;;;;5113092;28;19998;-43
2022/10/16 11:32:11;;;;;;;;;;;20.20;92.80;;;;;;5113009;28;19908;-45
2022/10/16 11:34:50;;;;;;;;;;;20.20;92.80;;;;;;5112373;28;19959;-45
2022/10/16 11:37:24;;;;;;;;;;;20.20;92.80;;;;;;5113174;28;19908;-44
2022/10/16 11:39:50;;;;;;;;;;;20.20;92.80;;;;;;5113201;28;20332;-44
2022/10/16 11:42:30;;;;;;;;;;;20.20;92.80;;;;;;5114031;28;20403;-42
2022/10/16 11:45:04;;;;;;;;;;;20.20;92.70;;;;;;5114637;28;19908;-42
2022/10/16 11:47:33;;;;;;;;;;;20.20;92.80;;;;;;5115320;28;20408;-42
2022/10/16 11:50:06;;;;;;;;;;;20.20;92.70;;;;;;5134905;27;19908;-43
2022/10/16 11:52:49;;;;;;;;;;;20.20;92.70;;;;;;5134627;28;20330;-43
2022/10/16 11:55:17;;;;;;;;;;;20.20;92.70;;;;;;5134880;28;19979;-45
2022/10/16 11:57:48;;;;;;;;;;;20.20;92.70;;;;;;5134724;28;19912;-43
2022/10/16 12:00:19;;;;;;;;;;;20.20;92.70;;;;;;5134735;28;20300;-43
2022/10/16 12:02:57;;;;;;;;;;;20.20;92.70;;;;;;5115925;28;19911;-43
2022/10/16 12:05:29;;;;;;;;;;;20.20;92.70;;;;;;5134627;28;19915;-43
2022/10/16 12:08:03;;;;;;;;;;;20.20;92.70;;;;;;5134845;28;19998;-44
2022/10/16 12:10:31;;;;;;;;;;;20.20;92.70;;;;;;5116341;28;19907;-45
2022/10/16 12:12:57;;;;;;;;;;;20.20;92.70;;;;;;5134610;28;20014;-43
2022/10/16 12:15:27;;;;;;;;;;;20.20;92.70;;;;;;5134510;28;19916;-43
2022/10/16 12:17:53;;;;;;;;;;;20.20;92.70;;;;;;5137441;27;20005;-44
2022/10/16 12:20:23;;;;;;;;;;;20.20;92.70;;;;;;5138901;27;19981;-43
2022/10/16 12:22:55;;;;;;;;;;;20.20;92.70;;;;;;5138668;27;20061;-44
2022/10/16 12:25:28;;;;;;;;;;;20.20;92.70;;;;;;5138427;27;19907;-43
2022/10/16 12:27:54;;;;;;;;;;;20.20;92.70;;;;;;5138644;27;19908;-43
2022/10/16 12:30:24;;;;;;;;;;;20.20;92.70;;;;;;5138654;27;19913;-43
2022/10/16 12:32:54;;;;;;;;;;;20.20;92.70;;;;;;5138838;27;19908;-44
2022/10/16 12:35:25;;;;;;;;;;;20.20;92.70;;;;;;5138394;27;19915;-42
2022/10/16 12:37:51;;;;;;;;;;;20.20;92.70;;;;;;5138433;27;19947;-44
2022/10/16 12:40:25;;;;;;;;;;;20.20;92.70;;;;;;5138024;27;20314;-45
2022/10/16 12:42:51;;;;;;;;;;;20.20;92.70;;;;;;5120122;27;19907;-44
2022/10/16 12:45:25;;;;;;;;;;;20.20;92.70;;;;;;5137269;27;20357;-43
2022/10/16 12:47:53;;;;;;;;;;;20.20;92.70;;;;;;5117395;28;19919;-43
2022/10/16 12:50:24;;;;;;;;;;;20.20;92.70;;;;;;5117227;28;20024;-42
2022/10/16 12:52:50;;;;;;;;;;;20.20;92.60;;;;;;5116496;28;19908;-43
2022/10/16 12:55:17;;;;;;;;;;;20.20;92.70;;;;;;5117317;28;19942;-42
2022/10/16 12:58:01;;;;;;;;;;;20.20;92.60;;;;;;5117077;28;19933;-42
2022/10/16 13:00:44;;;;;;;;;;;20.20;92.90;;;;;;5117147;28;19908;-45
2022/10/16 13:03:28;;;;;;;;;;;20.20;92.60;;;;;;5116890;28;20422;-43
2022/10/16 13:05:59;;;;;;;;;;;20.20;92.60;;;;;;5116755;28;19999;-44
2022/10/16 13:08:44;;;;;;;;;;;20.20;92.50;;;;;;5117260;28;19935;-45
2022/10/16 13:11:12;;;;;;;;;;;20.20;92.50;;;;;;5116793;28;20278;-43
2022/10/16 13:13:38;;;;;;;;;;;20.20;92.40;;;;;;5115914;28;19908;-42
2022/10/16 13:16:09;;;;;;;;;;;20.20;92.40;;;;;;5116853;28;19969;-43
2022/10/16 13:18:57;;;;;;;;;;;20.20;92.40;;;;;;5115983;28;19908;-42
2022/10/16 13:21:31;;;;;;;;;;;20.20;92.40;;;;;;5117098;28;19908;-43
2022/10/16 13:24:01;;;;;;;;;;;20.20;92.40;;;;;;5116968;28;20441;-43
2022/10/16 13:26:36;;;;;;;;;;;20.20;92.70;;;;;;5116532;28;19939;-43
2022/10/16 13:29:01;;;;;;;;;;;20.20;92.50;;;;;;5116818;28;19914;-44
2022/10/16 13:31:27;;;;;;;;;;;20.30;92.60;;;;;;5116909;28;20304;-42
2022/10/16 13:33:55;;;;;;;;;;;20.20;92.60;;;;;;5116393;28;19908;-42
2022/10/16 13:36:20;;;;;;;;;;;20.20;92.60;;;;;;5116575;28;20346;-43
2022/10/16 13:38:46;;;;;;;;;;;20.20;92.50;;;;;;5116857;28;19964;-44
2022/10/16 13:41:18;;;;;;;;;;;20.20;92.60;;;;;;5116890;28;20369;-47
2022/10/16 13:43:48;;;;;;;;;;;20.20;92.60;;;;;;5116371;28;19957;-43
2022/10/16 13:46:15;;;;;;;;;;;20.20;92.60;;;;;;5125190;27;20316;-44
2022/10/16 13:48:41;;;;;;;;;;;20.20;92.60;;;;;;5136818;27;19992;-44
2022/10/16 13:51:17;;;;;;;;;;;20.20;92.50;;;;;;5136615;27;20357;-43
2022/10/16 13:53:43;;;;;;;;;;;20.20;92.50;;;;;;5136861;27;19908;-42
2022/10/16 13:56:13;;;;;;;;;;;20.20;92.50;;;;;;5136817;27;20380;-42
2022/10/16 13:58:39;;;;;;;;;;;20.20;92.50;;;;;;5136834;27;19908;-42
2022/10/16 14:01:05;;;;;;;;;;;20.20;92.50;;;;;;5118143;27;19914;-44
2022/10/16 14:03:32;;;;;;;;;;;20.20;92.50;;;;;;5136563;27;19937;-44
2022/10/16 14:06:00;;;;;;;;;;;20.20;92.50;;;;;;5136536;27;19908;-44
2022/10/16 14:08:26;;;;;;;;;;;20.20;92.50;;;;;;5136755;27;19926;-45
2022/10/16 14:10:53;;;;;;;;;;;20.20;92.50;;;;;;5136614;27;19908;-43
2022/10/16 14:13:22;;;;;;;;;;;20.20;92.50;;;;;;5119321;27;19908;-48
2022/10/16 14:15:50;;;;;;;;;;;20.20;92.40;;;;;;5097576;28;19920;-43
2022/10/16 14:18:20;;;;;;;;;;;20.30;92.40;;;;;;5115975;28;19954;-44
2022/10/16 14:20:46;;;;;;;;;;;20.30;92.40;;;;;;5115961;28;19919;-43
2022/10/16 14:23:32;;;;;;;;;;;20.20;92.30;;;;;;5097593;28;19908;-48